Time;durP1;ratioP1;P1;durP2;ratioP2;P2;SDS_P1;SDS_P2;PMS_P1;PMS_P2;Temp;Humidity;BMP_temperature;BMP_pressure;BME280_temperature;BME280_humidity;BME280_pressure;Samples;Min_cycle;Max_cycle;Signal;HPM_P1;HPM_P2
2021/05/19 04:50:52;;;;;;;24.05;18.52;;;7.50;99.90;;;;;;5807117;23;20053;-67
2021/05/19 04:53:18;;;;;;;28.45;18.65;;;7.40;99.90;;;;;;5011413;28;20053;-66
2021/05/19 04:55:45;;;;;;;19.55;17.42;;;7.50;99.90;;;;;;5011117;28;20037;-66
2021/05/19 04:58:12;;;;;;;24.23;16.92;;;7.50;99.90;;;;;;5008384;28;20045;-66
2021/05/19 05:00:38;;;;;;;;;;;7.50;99.90;;;;;;5007536;28;20450;-67
2021/05/19 05:03:06;;;;;;;17.65;15.73;;;7.50;99.90;;;;;;4991775;28;20017;-67
2021/05/19 05:05:32;;;;;;;19.65;15.27;;;7.40;99.90;;;;;;4974086;28;20053;-67
2021/05/19 05:08:00;;;;;;;17.67;15.77;;;7.40;99.90;;;;;;4990934;28;20054;-67
2021/05/19 05:10:26;;;;;;;17.38;15.38;;;7.40;99.90;;;;;;4971655;28;20050;-68
2021/05/19 05:12:53;;;;;;;;;;;7.30;99.90;;;;;;4988932;28;20199;-68
2021/05/19 05:15:21;;;;;;;17.38;14.48;;;7.60;99.90;;;;;;4991485;28;19921;-67
2021/05/19 05:17:47;;;;;;;16.05;14.38;;;7.60;99.90;;;;;;4987876;28;20057;-68
2021/05/19 05:20:15;;;;;;;16.23;14.52;;;7.70;99.90;;;;;;4991150;28;20529;-67
2021/05/19 05:22:41;;;;;;;19.60;14.60;;;7.80;99.90;;;;;;4990054;28;20531;-68
2021/05/19 05:25:09;;;;;;;;;;;7.90;99.90;;;;;;4989709;28;20065;-68
2021/05/19 05:27:37;;;;;;;15.05;12.90;;;7.90;99.90;;;;;;4991283;28;19942;-69
2021/05/19 05:30:05;;;;;;;16.17;14.43;;;7.90;99.90;;;;;;4984347;28;20474;-68
2021/05/19 05:32:32;;;;;;;16.25;14.50;;;8.00;99.90;;;;;;4984626;28;20116;-69
2021/05/19 05:34:58;;;;;;;17.20;14.00;;;8.00;99.90;;;;;;4984153;28;20046;-69
2021/05/19 05:37:25;;;;;;;18.45;13.38;;;8.00;99.90;;;;;;4978855;28;20117;-69
2021/05/19 05:39:52;;;;;;;16.27;14.68;;;8.10;99.90;;;;;;4986520;28;20038;-68
2021/05/19 05:42:19;;;;;;;16.02;13.52;;;8.10;99.90;;;;;;4990264;28;20050;-69
2021/05/19 05:44:46;;;;;;;16.67;12.27;;;8.20;99.90;;;;;;4990649;28;20042;-69
2021/05/19 05:47:13;;;;;;;;;;;8.20;99.90;;;;;;4979834;28;20046;-68
2021/05/19 05:49:39;;;;;;;16.63;12.63;;;8.40;99.90;;;;;;4972492;28;20024;-68
2021/05/19 05:52:06;;;;;;;;;;;8.40;99.90;;;;;;4991070;28;20066;-67
2021/05/19 05:54:33;;;;;;;12.75;11.45;;;8.40;99.90;;;;;;4990973;28;19980;-67
2021/05/19 05:56:59;;;;;;;;;;;8.60;99.90;;;;;;4991180;28;20045;-67
2021/05/19 05:59:27;;;;;;;14.50;11.77;;;8.80;99.90;;;;;;4991163;28;20125;-66
2021/05/19 06:01:53;;;;;;;14.07;11.80;;;8.80;99.90;;;;;;4990432;28;20046;-65
2021/05/19 06:04:20;;;;;;;;;;;8.80;99.90;;;;;;4983823;28;20047;-66
2021/05/19 06:06:47;;;;;;;14.40;12.45;;;8.90;99.90;;;;;;4979506;28;20384;-67
2021/05/19 06:09:13;;;;;;;;;;;9.00;99.90;;;;;;4991054;28;20046;-66
2021/05/19 06:11:40;;;;;;;12.65;10.60;;;9.00;99.90;;;;;;4990372;28;19960;-67
2021/05/19 06:14:06;;;;;;;;;;;9.10;99.90;;;;;;4991417;28;20081;-67
2021/05/19 06:16:34;;;;;;;11.70;10.55;;;9.20;99.90;;;;;;4990771;28;19922;-68
2021/05/19 06:19:01;;;;;;;12.27;10.82;;;9.40;99.90;;;;;;4990654;28;20038;-67
2021/05/19 06:21:28;;;;;;;11.38;10.38;;;9.60;99.90;;;;;;4991758;28;20156;-68
2021/05/19 06:23:55;;;;;;;13.65;10.82;;;9.60;99.90;;;;;;4991485;28;20050;-68
2021/05/19 06:26:21;;;;;;;12.23;10.95;;;9.60;99.90;;;;;;4991166;28;20102;-68
2021/05/19 06:28:48;;;;;;;12.07;10.85;;;9.80;99.90;;;;;;4991451;28;20482;-69
2021/05/19 06:31:14;;;;;;;13.98;10.85;;;9.80;99.90;;;;;;4993112;28;20042;-68
2021/05/19 06:33:42;;;;;;;10.98;9.88;;;9.80;99.90;;;;;;4993241;28;20066;-67
2021/05/19 06:36:08;;;;;;;11.88;10.23;;;9.90;99.90;;;;;;4993570;28;20065;-65
2021/05/19 06:38:35;;;;;;;11.35;10.25;;;10.10;99.90;;;;;;4994837;28;20129;-66
2021/05/19 06:41:01;;;;;;;16.35;11.15;;;10.30;99.90;;;;;;4994003;28;20050;-66
2021/05/19 06:43:28;;;;;;;11.10;9.95;;;10.40;99.90;;;;;;4992801;28;20061;-64
2021/05/19 06:45:54;;;;;;;13.00;8.80;;;10.50;99.90;;;;;;4991096;28;20068;-65
2021/05/19 06:48:21;;;;;;;10.77;9.27;;;10.70;99.90;;;;;;4990301;28;20449;-65
2021/05/19 06:50:48;;;;;;;14.18;9.80;;;11.10;99.90;;;;;;4990513;28;20054;-65
2021/05/19 06:53:15;;;;;;;9.77;8.50;;;11.10;99.90;;;;;;4972717;28;20054;-65
2021/05/19 06:55:47;;;;;;;11.30;9.65;;;10.90;99.90;;;;;;4990050;28;20136;-65
2021/05/19 06:58:13;;;;;;;11.38;9.45;;;10.70;99.90;;;;;;4990824;28;20046;-64
2021/05/19 07:00:40;;;;;;;10.88;9.77;;;10.70;99.90;;;;;;4994301;28;20046;-65
2021/05/19 07:03:06;;;;;;;11.00;9.90;;;10.80;99.90;;;;;;4993801;28;20117;-65
2021/05/19 07:05:33;;;;;;;9.98;8.98;;;11.00;99.90;;;;;;4994131;28;20073;-65
2021/05/19 07:08:00;;;;;;;10.93;9.23;;;11.00;99.90;;;;;;4993895;28;20038;-65
2021/05/19 07:10:27;;;;;;;9.50;8.70;;;11.00;99.90;;;;;;4993864;28;20054;-65
2021/05/19 07:12:54;;;;;;;13.20;9.25;;;11.00;99.90;;;;;;4995042;28;20520;-65
2021/05/19 07:15:22;;;;;;;17.65;10.07;;;10.90;99.90;;;;;;4988949;28;20479;-66
2021/05/19 07:17:49;;;;;;;10.48;8.93;;;11.10;99.90;;;;;;4983392;28;20544;-66
2021/05/19 07:20:15;;;;;;;10.38;9.27;;;11.20;99.90;;;;;;4994968;28;20057;-65
2021/05/19 07:22:42;;;;;;;11.20;9.15;;;11.20;99.90;;;;;;4974102;28;20057;-66
2021/05/19 07:25:10;;;;;;;11.10;9.18;;;11.20;99.90;;;;;;4973822;28;20133;-66
2021/05/19 07:27:37;;;;;;;11.95;9.80;;;11.30;99.90;;;;;;4992370;28;20851;-67
2021/05/19 07:30:05;;;;;;;10.63;9.18;;;11.60;99.90;;;;;;4990246;28;20272;-67
2021/05/19 07:32:31;;;;;;;10.55;8.23;;;12.20;99.90;;;;;;4991712;28;20042;-67
2021/05/19 07:34:58;;;;;;;8.85;7.95;;;12.90;99.90;;;;;;4992876;28;20066;-67
2021/05/19 07:37:25;;;;;;;7.85;7.13;;;13.10;99.90;;;;;;4993082;28;20659;-67
2021/05/19 07:39:52;;;;;;;8.43;7.32;;;13.30;99.90;;;;;;4992780;28;20049;-67
2021/05/19 07:42:19;;;;;;;;;;;13.30;99.90;;;;;;4976193;28;20409;-68
2021/05/19 07:44:46;;;;;;;7.68;6.85;;;13.10;99.90;;;;;;4992895;28;20302;-68
2021/05/19 07:47:13;;;;;;;8.60;7.80;;;13.50;99.90;;;;;;4993899;28;20537;-68
2021/05/19 07:49:39;;;;;;;11.13;8.80;;;13.70;99.90;;;;;;4993357;28;20050;-67
2021/05/19 07:52:06;;;;;;;8.85;7.93;;;13.40;99.90;;;;;;4991819;28;20494;-68
2021/05/19 07:54:34;;;;;;;8.27;7.55;;;13.10;99.90;;;;;;4974950;28;20089;-68
2021/05/19 07:57:02;;;;;;;8.75;7.80;;;13.50;99.90;;;;;;4989520;28;20038;-68
2021/05/19 07:59:32;;;;;;;7.82;6.90;;;13.90;99.90;;;;;;4992244;28;20046;-69
2021/05/19 08:02:03;;;;;;;7.38;6.25;;;14.80;99.90;;;;;;4992208;28;20046;-68
2021/05/19 08:04:32;;;;;;;8.05;6.80;;;15.40;99.90;;;;;;4985143;28;20077;-68
2021/05/19 08:06:59;;;;;;;9.73;6.88;;;15.10;99.90;;;;;;4992403;28;20425;-68
2021/05/19 08:09:26;;;;;;;7.45;6.75;;;14.90;99.90;;;;;;4991812;28;20057;-68
2021/05/19 08:11:52;;;;;;;;;;;14.20;99.90;;;;;;4991554;28;20136;-68
2021/05/19 08:14:19;;;;;;;10.52;8.18;;;13.50;99.90;;;;;;4992635;28;19921;-68
2021/05/19 08:16:46;;;;;;;8.40;7.60;;;13.30;99.90;;;;;;4974354;28;20043;-68
2021/05/19 08:19:13;;;;;;;9.10;8.20;;;13.60;99.90;;;;;;4991856;28;20046;-67
2021/05/19 08:21:41;;;;;;;9.60;8.30;;;13.40;99.90;;;;;;4992333;28;20070;-68
2021/05/19 08:24:08;;;;;;;8.40;7.60;;;13.40;99.90;;;;;;4991729;28;20091;-70
2021/05/19 08:26:35;;;;;;;7.68;6.38;;;14.70;99.90;;;;;;4987008;28;20039;-69
2021/05/19 08:29:05;;;;;;;7.05;6.32;;;15.90;99.90;;;;;;4978892;28;20514;-66
2021/05/19 08:31:32;;;;;;;7.95;7.22;;;15.10;99.90;;;;;;4992241;28;20480;-67
2021/05/19 08:33:59;;;;;;;;;;;15.30;99.90;;;;;;4993088;28;20073;-68
2021/05/19 08:36:26;;;;;;;6.82;6.22;;;15.70;99.90;;;;;;4982809;28;19925;-67
2021/05/19 08:38:54;;;;;;;6.40;5.80;;;17.60;99.90;;;;;;4989624;28;20074;-67
2021/05/19 08:41:21;;;;;;;6.22;5.63;;;18.20;99.90;;;;;;4991791;28;20054;-68
2021/05/19 08:43:48;;;;;;;6.28;5.65;;;17.30;99.90;;;;;;4994806;28;20054;-68
2021/05/19 08:46:15;;;;;;;7.13;5.80;;;17.50;99.90;;;;;;4974508;28;20070;-68
2021/05/19 08:48:42;;;;;;;;;;;17.30;99.90;;;;;;4974220;28;20046;-67
2021/05/19 08:51:10;;;;;;;6.78;6.07;;;16.20;99.90;;;;;;4988342;28;20013;-68
2021/05/19 08:53:36;;;;;;;6.88;5.95;;;15.90;99.90;;;;;;4991656;28;20047;-68
2021/05/19 08:56:10;;;;;;;7.47;6.78;;;15.70;99.90;;;;;;4991340;28;20502;-68
2021/05/19 08:58:37;;;;;;;7.20;5.22;;;16.40;99.90;;;;;;4992111;28;20047;-68
2021/05/19 09:01:04;;;;;;;6.60;6.00;;;17.50;99.90;;;;;;4991022;28;20565;-67
2021/05/19 09:03:33;;;;;;;8.35;6.00;;;16.90;99.90;;;;;;4992252;28;20046;-67
2021/05/19 09:06:01;;;;;;;6.72;5.40;;;17.40;99.90;;;;;;4991438;28;20394;-68
2021/05/19 09:08:36;;;;;;;7.20;6.07;;;17.80;99.90;;;;;;4991921;28;20133;-67
2021/05/19 09:11:05;;;;;;;6.43;5.82;;;17.90;99.90;;;;;;4991654;28;20057;-67
2021/05/19 09:13:33;;;;;;;5.72;5.22;;;17.20;99.90;;;;;;4991326;28;20104;-67
2021/05/19 09:16:01;;;;;;;5.53;3.90;;;17.40;99.90;;;;;;4991787;28;20055;-67
2021/05/19 09:18:46;;;;;;;4.90;3.63;;;18.70;99.90;;;;;;4991489;28;20502;-67
2021/05/19 09:21:31;;;;;;;6.55;3.90;;;19.30;99.90;;;;;;4973513;28;20141;-68
2021/05/19 09:24:00;;;;;;;4.80;2.92;;;18.60;99.90;;;;;;4986925;28;20418;-68
2021/05/19 09:26:26;;;;;;;5.13;3.10;;;18.20;99.90;;;;;;4982028;28;20057;-69
2021/05/19 09:28:53;;;;;;;5.63;3.28;;;18.30;99.90;;;;;;4991172;28;20046;-68
2021/05/19 09:31:20;;;;;;;8.75;3.97;;;17.80;99.90;;;;;;4989022;28;20556;-68
2021/05/19 09:33:48;;;;;;;7.10;5.10;;;17.00;99.90;;;;;;4983813;28;20129;-69
2021/05/19 09:36:18;;;;;;;6.18;4.57;;;16.30;99.90;;;;;;4985228;28;20049;-69
2021/05/19 09:38:49;;;;;;;6.43;5.20;;;16.30;99.90;;;;;;4994438;28;20093;-69
2021/05/19 09:41:21;;;;;;;4.75;4.35;;;17.10;99.90;;;;;;4993716;28;20121;-70
2021/05/19 09:43:52;;;;;;;5.53;3.35;;;16.90;99.90;;;;;;4994043;28;20050;-71
2021/05/19 09:46:22;;;;;;;5.25;2.15;;;18.20;99.90;;;;;;4992089;28;20215;-68
2021/05/19 09:49:10;;;;;;;3.00;1.92;;;18.90;99.90;;;;;;4983495;28;20077;-69
2021/05/19 09:51:36;;;;;;;4.13;2.10;;;18.90;99.90;;;;;;4990844;28;20502;-68
2021/05/19 09:54:03;;;;;;;;;;;19.90;99.90;;;;;;4991379;28;20188;-68
2021/05/19 09:56:30;;;;;;;4.07;2.90;;;20.50;99.90;;;;;;4988217;28;20021;-69
2021/05/19 09:58:57;;;;;;;2.78;2.03;;;21.00;99.90;;;;;;4992298;28;20098;-70
2021/05/19 10:01:25;;;;;;;2.67;1.80;;;19.90;99.90;;;;;;4990212;28;20053;-69
2021/05/19 10:03:52;;;;;;;2.67;1.45;;;18.90;99.90;;;;;;4991290;28;20058;-69
2021/05/19 10:06:23;;;;;;;4.15;1.90;;;18.20;99.90;;;;;;4990728;28;20576;-69
2021/05/19 10:08:50;;;;;;;2.90;1.10;;;17.50;99.90;;;;;;4990708;28;20050;-68
2021/05/19 10:11:17;;;;;;;5.10;1.27;;;17.70;99.90;;;;;;4970782;28;21222;-68
2021/05/19 10:13:44;;;;;;;;;;;18.50;98.90;;;;;;4982746;28;20073;-68
2021/05/19 10:16:15;;;;;;;4.55;1.30;;;19.10;98.70;;;;;;4985510;28;20047;-69
2021/05/19 10:18:47;;;;;;;2.70;1.13;;;19.40;93.10;;;;;;4990625;28;20077;-68
2021/05/19 10:21:15;;;;;;;2.03;1.25;;;19.60;94.80;;;;;;4991940;28;20042;-68
2021/05/19 10:24:01;;;;;;;1.23;0.90;;;20.10;93.40;;;;;;5010930;28;20049;-68
2021/05/19 10:26:27;;;;;;;2.15;0.80;;;19.80;93.60;;;;;;4978908;28;20537;-68
2021/05/19 10:28:54;;;;;;;1.50;0.77;;;19.80;88.80;;;;;;4985779;28;20038;-69
2021/05/19 10:31:29;;;;;;;1.10;0.55;;;19.50;88.20;;;;;;4990090;28;20133;-68
2021/05/19 10:33:57;;;;;;;5.15;0.95;;;18.90;88.90;;;;;;4990186;28;20066;-68
2021/05/19 10:36:43;;;;;;;1.48;0.70;;;18.20;91.70;;;;;;4982692;28;20042;-69
2021/05/19 10:39:26;;;;;;;2.03;1.05;;;19.00;92.80;;;;;;4986564;28;20061;-68
2021/05/19 10:41:55;;;;;;;3.20;0.85;;;19.80;92.10;;;;;;4972087;28;20046;-68
2021/05/19 10:44:29;;;;;;;3.00;1.00;;;20.20;91.50;;;;;;4992365;28;20069;-68
2021/05/19 10:46:59;;;;;;;0.70;0.70;;;19.90;89.80;;;;;;4976295;28;20042;-69
2021/05/19 10:50:12;;;;;;;2.53;1.00;;;19.90;90.40;;;;;;4975578;28;20046;-68
2021/05/19 10:58:36;;;;;;;4.10;1.13;;;19.20;93.20;;;;;;4988668;28;20046;-68
2021/05/19 11:01:05;;;;;;;2.47;0.95;;;19.40;93.60;;;;;;4989416;28;20105;-68
2021/05/19 11:03:32;;;;;;;5.60;1.33;;;19.60;92.40;;;;;;4987260;28;20537;-68
2021/05/19 11:06:12;;;;;;;2.13;1.02;;;19.80;92.90;;;;;;5010947;23;20053;-68
2021/05/19 11:08:42;;;;;;;1.58;1.10;;;19.30;94.30;;;;;;4988821;28;20258;-69
2021/05/19 11:11:21;;;;;;;2.55;1.15;;;19.80;93.50;;;;;;4989313;28;20049;-69
2021/05/19 11:14:02;;;;;;;3.22;1.58;;;19.70;92.20;;;;;;4984091;28;20489;-69
2021/05/19 11:16:51;;;;;;;1.13;0.95;;;19.90;93.20;;;;;;4987125;28;20146;-69
2021/05/19 11:19:32;;;;;;;4.40;2.17;;;20.10;90.00;;;;;;4992200;28;20078;-68
2021/05/19 11:22:10;;;;;;;5.88;3.60;;;19.30;89.20;;;;;;4996090;28;20050;-71
2021/05/19 11:25:06;;;;;;;4.95;1.27;;;18.60;88.90;;;;;;4971401;28;20506;-69
2021/05/19 11:27:34;;;;;;;4.97;1.20;;;18.50;90.00;;;;;;4934059;28;20066;-72
2021/05/19 11:30:04;;;;;;;4.55;0.80;;;18.70;85.80;;;;;;4992404;28;20421;-71
2021/05/19 11:32:36;;;;;;;5.93;1.08;;;19.00;83.90;;;;;;4977804;28;20368;-71
2021/05/19 11:35:16;;;;;;;2.33;0.73;;;19.20;85.50;;;;;;4970218;28;20050;-69
2021/05/19 11:37:57;;;;;;;3.20;1.20;;;19.20;82.30;;;;;;4987900;28;20046;-69
2021/05/19 11:40:35;;;;;;;3.00;1.08;;;19.80;84.50;;;;;;4988474;28;20062;-69
2021/05/19 11:43:05;;;;;;;4.85;1.05;;;20.10;86.20;;;;;;4988750;28;20129;-68
2021/05/19 11:45:32;;;;;;;5.63;1.30;;;20.50;86.80;;;;;;4991204;28;20077;-70
2021/05/19 11:48:00;;;;;;;2.10;0.95;;;20.30;85.20;;;;;;4992887;28;20123;-69
2021/05/19 11:50:28;;;;;;;3.97;1.20;;;20.30;83.20;;;;;;4992461;28;20077;-69
2021/05/19 11:52:57;;;;;;;2.67;0.90;;;21.20;83.50;;;;;;4996374;28;20088;-68
2021/05/19 11:55:46;;;;;;;3.03;0.80;;;21.40;78.60;;;;;;4992931;28;20430;-69
2021/05/19 11:58:16;;;;;;;3.55;1.02;;;21.10;75.90;;;;;;4987263;28;20498;-68
2021/05/19 12:00:46;;;;;;;3.35;1.45;;;21.50;71.90;;;;;;4994494;28;20048;-69
2021/05/19 12:03:15;;;;;;;2.47;1.23;;;21.20;69.20;;;;;;4992477;28;20526;-71
2021/05/19 12:05:48;;;;;;;1.70;0.80;;;21.30;73.00;;;;;;4975238;28;20129;-71
2021/05/19 12:08:16;;;;;;;2.97;0.70;;;21.30;72.40;;;;;;4992877;28;20096;-72
2021/05/19 12:10:43;;;;;;;2.80;0.80;;;21.10;73.80;;;;;;4991562;28;20430;-71
2021/05/19 12:13:10;;;;;;;1.85;0.65;;;20.40;73.80;;;;;;4991797;28;20431;-70
2021/05/19 12:15:39;;;;;;;1.77;0.70;;;20.80;72.40;;;;;;4994982;28;20049;-70
2021/05/19 12:18:09;;;;;;;3.17;0.68;;;21.40;70.10;;;;;;4991649;28;20512;-71
2021/05/19 12:20:38;;;;;;;5.82;0.70;;;21.70;69.90;;;;;;4991761;28;20053;-70
2021/05/19 12:23:06;;;;;;;4.07;1.00;;;21.00;71.40;;;;;;4991569;28;20136;-70
2021/05/19 12:25:34;;;;;;;1.35;0.60;;;21.00;71.10;;;;;;4991780;28;20046;-70
2021/05/19 12:28:03;;;;;;;1.23;0.55;;;21.20;70.10;;;;;;4996993;28;20034;-70
2021/05/19 12:30:41;;;;;;;2.40;0.70;;;20.40;74.10;;;;;;4991061;28;20125;-70
2021/05/19 12:33:09;;;;;;;1.23;0.80;;;20.50;74.00;;;;;;4991653;28;20069;-69
2021/05/19 12:35:44;;;;;;;3.42;0.70;;;20.50;72.70;;;;;;4992202;28;20605;-70
2021/05/19 12:38:11;;;;;;;2.72;0.77;;;21.40;71.50;;;;;;4991707;28;20053;-70
2021/05/19 12:40:39;;;;;;;3.25;0.80;;;21.10;71.00;;;;;;4990931;28;20078;-70
2021/05/19 12:43:08;;;;;;;2.28;0.70;;;21.50;70.40;;;;;;4962925;28;20116;-69
2021/05/19 12:45:37;;;;;;;2.05;0.95;;;21.90;70.50;;;;;;4985915;28;20046;-69
2021/05/19 12:48:07;;;;;;;2.45;0.98;;;22.20;67.40;;;;;;4991586;28;20046;-70
2021/05/19 12:50:43;;;;;;;1.92;0.73;;;22.00;69.00;;;;;;4982926;28;20097;-72
2021/05/19 12:53:27;;;;;;;2.55;0.82;;;21.40;67.50;;;;;;4981953;28;20043;-71
2021/05/19 12:56:00;;;;;;;0.63;0.40;;;22.10;65.40;;;;;;4990588;28;20049;-70
2021/05/19 12:58:28;;;;;;;1.67;0.70;;;21.40;66.00;;;;;;4994299;28;20049;-70
2021/05/19 13:00:56;;;;;;;1.65;0.70;;;21.30;69.90;;;;;;5004246;28;20035;-70
2021/05/19 13:03:33;;;;;;;1.58;0.77;;;21.60;66.90;;;;;;4995346;28;20359;-69
2021/05/19 13:06:02;;;;;;;4.63;0.70;;;20.90;70.00;;;;;;4991136;28;20095;-70
2021/05/19 13:08:29;;;;;;;2.47;0.85;;;21.30;67.90;;;;;;4993357;28;20550;-70
2021/05/19 13:10:56;;;;;;;1.25;0.90;;;21.80;70.40;;;;;;4972602;28;20491;-70
2021/05/19 13:13:27;;;;;;;1.42;0.70;;;21.90;68.00;;;;;;4983040;28;20532;-70
2021/05/19 13:15:57;;;;;;;7.63;0.77;;;21.40;68.90;;;;;;4991644;28;20135;-70
2021/05/19 13:18:29;;;;;;;1.42;0.70;;;21.90;67.00;;;;;;4968007;28;20043;-68
2021/05/19 13:21:01;;;;;;;2.13;0.50;;;21.90;66.60;;;;;;4983916;28;20061;-70
2021/05/19 13:23:44;;;;;;;3.22;0.90;;;21.70;67.00;;;;;;4998788;28;20081;-70
2021/05/19 13:26:12;;;;;;;5.60;1.30;;;21.70;67.60;;;;;;4994758;28;20053;-70
2021/05/19 13:28:40;;;;;;;2.50;0.82;;;22.20;69.40;;;;;;4991444;28;20070;-70
2021/05/19 13:31:08;;;;;;;1.65;0.60;;;23.10;67.20;;;;;;4991688;28;20435;-70
2021/05/19 13:33:52;;;;;;;2.92;0.80;;;23.40;64.30;;;;;;4990995;28;20075;-70
2021/05/19 13:36:24;;;;;;;2.15;0.75;;;23.50;67.70;;;;;;4974231;28;20104;-71
2021/05/19 13:38:52;;;;;;;1.17;0.77;;;23.20;66.20;;;;;;4990324;28;20104;-70
2021/05/19 13:41:19;;;;;;;3.90;1.20;;;22.70;63.60;;;;;;4990893;28;20042;-68
2021/05/19 13:43:46;;;;;;;3.70;0.88;;;22.60;63.70;;;;;;4989805;28;20553;-69
2021/05/19 13:46:14;;;;;;;2.13;0.93;;;21.90;64.10;;;;;;4990175;28;20046;-68
2021/05/19 13:48:40;;;;;;;6.28;1.15;;;20.80;67.00;;;;;;4975485;28;20105;-68
2021/05/19 13:51:07;;;;;;;3.33;0.60;;;20.80;69.60;;;;;;5005947;28;20045;-68
2021/05/19 13:53:34;;;;;;;6.82;1.73;;;20.90;70.70;;;;;;4994173;28;20050;-68
2021/05/19 13:56:04;;;;;;;2.22;1.10;;;21.50;72.40;;;;;;4973943;28;20402;-68
2021/05/19 13:58:32;;;;;;;3.03;0.90;;;21.70;70.70;;;;;;4972065;28;20039;-68
2021/05/19 14:01:00;;;;;;;2.72;0.80;;;22.10;69.10;;;;;;4975632;28;20088;-68
2021/05/19 14:03:27;;;;;;;4.50;0.85;;;22.50;68.60;;;;;;4991811;28;20029;-69
2021/05/19 14:05:55;;;;;;;2.67;0.95;;;22.20;67.60;;;;;;4990526;28;20034;-69
2021/05/19 14:08:22;;;;;;;2.15;0.73;;;21.70;69.60;;;;;;4972210;28;20043;-69
2021/05/19 14:10:57;;;;;;;1.83;0.80;;;21.10;71.40;;;;;;4990534;28;20080;-69
2021/05/19 14:13:29;;;;;;;2.08;0.90;;;20.80;71.70;;;;;;4972799;28;20137;-69
2021/05/19 14:16:05;;;;;;;3.78;0.70;;;20.50;72.60;;;;;;4993423;28;20634;-68
2021/05/19 14:18:53;;;;;;;1.88;0.80;;;20.30;74.20;;;;;;4970107;28;20407;-68
2021/05/19 14:26:47;;;;;;;4.15;1.00;;;20.60;76.70;;;;;;4987756;28;20056;-71
2021/05/19 14:27:15;;;;;;;4.90;1.10;;;21.70;78.90;;;;;;4991217;28;20100;-69
2021/05/19 14:29:43;;;;;;;4.70;1.02;;;20.80;77.00;;;;;;4990843;28;20153;-69
2021/05/19 14:32:10;;;;;;;1.80;0.63;;;20.50;79.40;;;;;;4990656;28;20043;-68
2021/05/19 14:34:38;;;;;;;1.85;0.63;;;19.70;81.70;;;;;;4990757;28;20053;-70
2021/05/19 14:37:43;;;;;;;2.92;0.70;;;19.50;83.80;;;;;;4990383;28;20102;-70
2021/05/19 14:54:08;;;;;;;5.47;0.85;;;18.40;90.80;;;;;;4950061;28;20057;-69
2021/05/19 14:59:32;;;;;;;2.47;0.68;;;18.30;90.20;;;;;;4973068;28;20421;-69
2021/05/19 15:01:59;;;;;;;1.02;0.50;;;18.20;88.60;;;;;;4988398;28;20093;-69
2021/05/19 15:04:26;;;;;;;2.38;0.60;;;18.20;87.50;;;;;;4962905;28;20042;-69
2021/05/19 15:06:52;;;;;;;1.45;0.40;;;18.40;85.40;;;;;;4989246;28;20043;-68
2021/05/19 15:09:19;;;;;;;1.50;0.63;;;18.50;86.10;;;;;;4989042;28;20622;-70
2021/05/19 15:11:47;;;;;;;1.23;0.32;;;18.80;84.50;;;;;;4971615;28;20053;-72
2021/05/19 15:14:15;;;;;;;2.20;0.90;;;19.20;81.90;;;;;;4988444;28;20072;-71
2021/05/19 15:16:41;;;;;;;1.10;0.40;;;19.00;83.90;;;;;;4993596;28;20070;-71
2021/05/19 15:19:09;;;;;;;0.73;0.43;;;19.30;82.40;;;;;;4989731;28;20414;-72
2021/05/19 15:21:37;;;;;;;0.80;0.45;;;19.30;79.80;;;;;;4993324;28;20422;-70
2021/05/19 15:24:05;;;;;;;2.95;0.70;;;19.10;80.80;;;;;;4993357;28;20104;-71
2021/05/19 15:26:32;;;;;;;2.58;0.85;;;18.60;83.10;;;;;;4975374;28;20498;-70
2021/05/19 15:28:59;;;;;;;2.05;0.68;;;18.60;84.40;;;;;;4993424;28;20034;-71
2021/05/19 15:31:29;;;;;;;2.90;0.90;;;18.80;86.30;;;;;;4993287;28;20418;-72
2021/05/19 15:33:55;;;;;;;4.22;1.00;;;18.50;86.70;;;;;;4993005;28;20044;-69
2021/05/19 15:36:23;;;;;;;2.20;0.70;;;18.30;86.40;;;;;;4993138;28;20076;-69
2021/05/19 15:38:51;;;;;;;4.32;1.05;;;18.00;87.00;;;;;;4993092;28;20226;-69
2021/05/19 15:41:18;;;;;;;1.98;0.73;;;17.90;88.50;;;;;;4985067;28;20057;-69
2021/05/19 15:43:44;;;;;;;2.33;1.00;;;17.70;89.70;;;;;;4979486;28;20069;-68
2021/05/19 15:46:11;;;;;;;2.10;0.80;;;17.60;90.80;;;;;;4987294;28;20498;-68
2021/05/19 15:48:38;;;;;;;2.83;0.75;;;17.60;91.10;;;;;;4989951;28;20585;-68
2021/05/19 15:51:05;;;;;;;3.80;0.85;;;17.80;90.20;;;;;;4989632;28;20545;-68
2021/05/19 15:53:33;;;;;;;1.60;0.85;;;17.70;89.70;;;;;;4991226;28;20042;-69
2021/05/19 15:56:00;;;;;;;1.63;0.82;;;18.00;90.20;;;;;;4989521;28;20050;-69
2021/05/19 15:58:27;;;;;;;2.50;0.90;;;17.70;86.30;;;;;;4988246;28;20046;-68
2021/05/19 16:00:54;;;;;;;3.72;0.85;;;17.80;85.90;;;;;;4975838;28;20526;-68
2021/05/19 16:03:25;;;;;;;2.28;0.75;;;17.80;87.20;;;;;;4987709;28;20057;-69
2021/05/19 16:05:52;;;;;;;2.90;0.98;;;17.70;85.70;;;;;;4988643;28;20042;-67
2021/05/19 16:08:18;;;;;;;3.10;0.88;;;17.90;85.90;;;;;;4992432;28;20054;-70
2021/05/19 16:10:46;;;;;;;2.92;0.95;;;17.80;85.70;;;;;;4992413;28;20050;-68
2021/05/19 16:13:13;;;;;;;3.10;0.77;;;17.90;85.70;;;;;;4990914;28;20744;-67
2021/05/19 16:15:39;;;;;;;3.88;0.88;;;18.00;86.30;;;;;;4991566;28;20133;-69
2021/05/19 16:18:06;;;;;;;2.67;1.00;;;17.80;86.70;;;;;;4991823;28;20494;-69
2021/05/19 16:20:33;;;;;;;3.03;0.52;;;17.80;87.70;;;;;;4988154;28;20461;-68
2021/05/19 16:22:59;;;;;;;2.30;1.13;;;17.60;88.40;;;;;;4991024;28;20045;-68
2021/05/19 16:25:27;;;;;;;3.55;0.80;;;17.40;88.50;;;;;;4990260;28;20046;-68
2021/05/19 16:27:54;;;;;;;4.75;1.20;;;17.40;88.30;;;;;;4989429;28;20077;-68
2021/05/19 16:31:04;;;;;;;2.33;0.90;;;17.40;90.00;;;;;;4972687;28;20580;-68
2021/05/19 16:34:23;;;;;;;4.10;1.33;;;17.40;90.00;;;;;;4987433;28;20049;-67
2021/05/19 16:37:00;;;;;;;3.72;0.95;;;17.60;89.30;;;;;;4982323;28;20053;-68
2021/05/19 16:39:29;;;;;;;3.70;1.13;;;17.40;90.00;;;;;;4984408;28;20049;-68
2021/05/19 16:41:58;;;;;;;4.40;1.13;;;17.50;89.90;;;;;;4986902;28;20054;-67
2021/05/19 16:44:26;;;;;;;2.65;0.93;;;17.50;88.70;;;;;;4985885;28;20050;-68
2021/05/19 16:46:56;;;;;;;4.75;0.90;;;17.60;89.60;;;;;;4985997;28;20112;-68
2021/05/19 16:49:26;;;;;;;2.35;1.10;;;17.80;90.00;;;;;;4982736;28;20080;-68
2021/05/19 16:51:55;;;;;;;4.72;0.93;;;17.90;90.00;;;;;;4987780;28;20101;-68
2021/05/19 16:54:24;;;;;;;2.35;0.82;;;17.90;89.80;;;;;;4986975;28;20049;-68
2021/05/19 16:56:51;;;;;;;1.95;0.88;;;18.00;87.50;;;;;;4984317;28;20833;-68
2021/05/19 16:59:20;;;;;;;3.60;1.02;;;18.00;88.30;;;;;;4978422;28;20041;-68
2021/05/19 17:04:54;;;;;;;4.95;1.20;;;17.90;86.80;;;;;;4984086;28;20057;-68
2021/05/19 17:07:27;;;;;;;2.50;1.10;;;18.00;87.20;;;;;;4979495;23;20050;-82
2021/05/19 17:09:54;;;;;;;5.03;1.20;;;17.80;86.30;;;;;;4974813;28;20455;-82
2021/05/19 17:12:21;;;;;;;2.78;1.00;;;17.80;86.10;;;;;;4960894;28;20050;-82
2021/05/19 17:14:50;;;;;;;5.47;3.92;;;17.60;87.40;;;;;;4964432;28;20038;-81
2021/05/19 17:17:25;;;;;;;4.00;1.52;;;17.50;87.70;;;;;;4964364;28;20035;-81
2021/05/19 17:20:12;;;;;;;2.95;2.40;;;17.30;89.20;;;;;;4953086;28;20374;-81
2021/05/19 17:23:05;;;;;;;3.58;2.45;;;17.20;89.40;;;;;;4997678;23;20197;-79
2021/05/19 17:25:33;;;;;;;12.30;10.02;;;17.20;90.00;;;;;;5001420;28;20038;-80
2021/05/19 17:28:01;;;;;;;0.60;0.45;;;17.10;89.60;;;;;;4996837;28;20078;-79
2021/05/19 17:30:30;;;;;;;1.75;0.60;;;17.00;90.30;;;;;;5001092;28;20029;-79
2021/05/19 17:32:59;;;;;;;3.22;1.98;;;16.90;90.80;;;;;;5008020;28;20053;-79
2021/05/19 17:35:27;;;;;;;3.10;2.75;;;16.70;90.90;;;;;;4990236;28;20049;-80
2021/05/19 17:37:53;;;;;;;4.75;1.15;;;16.70;91.40;;;;;;4991377;28;20075;-82
2021/05/19 17:40:21;;;;;;;;;;;16.60;92.40;;;;;;5004765;28;20400;-82
2021/05/19 17:42:48;;;;;;;;;;;16.50;93.20;;;;;;5010599;28;20290;-83
2021/05/19 17:45:15;;;;;;;1.98;1.25;;;16.40;93.80;;;;;;5024806;28;19910;-83
2021/05/19 17:47:44;;;;;;;2.70;1.13;;;16.30;94.60;;;;;;5029246;28;20050;-83
2021/05/19 17:50:13;;;;;;;4.65;2.75;;;16.20;95.40;;;;;;5015979;28;20026;-83
2021/05/19 17:52:40;;;;;;;2.75;2.10;;;16.10;96.40;;;;;;5026152;28;20042;-85
2021/05/19 17:55:08;;;;;;;3.42;1.13;;;16.10;97.30;;;;;;5026669;28;20045;-83
2021/05/19 17:57:35;;;;;;;4.80;0.90;;;16.10;97.90;;;;;;5015455;28;20085;-83
2021/05/19 18:00:03;;;;;;;1.67;0.60;;;16.00;98.40;;;;;;4999637;28;20049;-83
2021/05/19 18:02:40;;;;;;;1.98;1.20;;;16.00;99.00;;;;;;5010731;28;20057;-83
2021/05/19 18:05:08;;;;;;;2.35;0.60;;;15.90;99.90;;;;;;5008271;28;20402;-83
2021/05/19 18:07:37;;;;;;;0.82;0.60;;;15.80;99.90;;;;;;4982987;28;20072;-84
2021/05/19 18:10:05;;;;;;;2.60;1.25;;;15.70;99.90;;;;;;4987178;28;20042;-83
2021/05/19 18:12:32;;;;;;;0.93;0.80;;;15.60;99.90;;;;;;4996034;28;20107;-83
2021/05/19 18:15:01;;;;;;;1.73;0.70;;;15.40;99.90;;;;;;5016545;28;20276;-84
2021/05/19 18:17:28;;;;;;;2.33;0.70;;;15.10;99.90;;;;;;5017500;28;20050;-83
2021/05/19 18:19:56;;;;;;;1.17;0.60;;;14.80;99.90;;;;;;5008301;28;20373;-87
2021/05/19 18:25:54;;;;;;;2.13;0.50;;;14.50;99.90;;;;;;5013617;28;20088;-85